Group: ZzZz

Releases: 99.301 · Total size: 3,95 TB

First: 2002-10-15 · Last: 2026-09-03

By section: MP3/FLAC 99.257 (3,95 TB), Music Video 44 (677,10 MB)

Release Section Group Size Files Date ↓
EDM_Blaster_-_Explode_(Original_Radio_Version_and_Remix)-(5494)-WEB-2020-ZzZz MP3/FLAC ZzZz 26,01 MB 7 2020-04-07
Rudradew_-_Souls-(5059435397105)-SINGLE-WEB-2020-ZzZz MP3/FLAC ZzZz 8,28 MB 5 2020-04-07
Jordan_Tobias_-_Higher-(JDX091)-SINGLE-WEB-2020-ZzZz MP3/FLAC ZzZz 9,70 MB 5 2020-04-07
Dave_Davidson_-_Give_Me-(PRO20078)-WEB-2020-ZzZz MP3/FLAC ZzZz 18,14 MB 6 2020-04-07
JAAMS_feat_Andreas_Von_Dyvor_-_Papa_Putin-(JAAMSPAPAPUTIN)-SINGLE-WEB-2020-ZzZz MP3/FLAC ZzZz 6,22 MB 4 2020-04-07
A0_-_No_Pasa_Nada-(PRE144)-WEB-2020-ZzZz MP3/FLAC ZzZz 21,18 MB 5 2020-04-07
Bsharry_-_You_Better_Run-(3616404130051)-WEB-2020-ZzZz MP3/FLAC ZzZz 25,69 MB 6 2020-04-07
DJ_Jotaro_-_Pierce_The_Freedom-(RLS00093725)-WEB-2020-ZzZz MP3/FLAC ZzZz 7,50 MB 6 2020-04-07
Iiven_-_Bedeutungslos-(RLS00093763)-SINGLE-WEB-2020-ZzZz MP3/FLAC ZzZz 6,70 MB 5 2020-04-07
Nacho_Chapado_and_Ivan_Gomez_feat_PKDO_-_King_Of_Your_Castle-(GR519)-SINGLE-WEB-2020-ZzZz MP3/FLAC ZzZz 14,69 MB 5 2020-04-07
Audioscribe_-_Shimmer-(NCS720)-SINGLE-WEB-2020-ZzZz MP3/FLAC ZzZz 10,61 MB 5 2020-04-07
Tom_Boxer_and_Clide_-_Erase_Me-(TBM068)-SINGLE-WEB-2020-ZzZz MP3/FLAC ZzZz 8,95 MB 5 2020-04-07
Adromared_-_Aruniel-(RLS00092234)-WEB-2020-ZzZz MP3/FLAC ZzZz 218,84 MB 39 2020-04-07
Futurespace_-_Steppin_Out_(Extended_Edition)-(HYPS810527)-WEB-2020-ZzZz MP3/FLAC ZzZz 52,46 MB 8 2020-04-07
DJ_Dark_and_MD_DJ_-_Sweet_Dreams-(CAT377181)-WEB-2020-ZzZz MP3/FLAC ZzZz 16,39 MB 6 2020-04-07
Erik_Hakansson_-_For_You-(JMJR074)-WEB-2020-ZzZz MP3/FLAC ZzZz 25,81 MB 6 2020-04-07
Spaceshokkers_-_Angelius-(JMJR031)-WEB-2012-ZzZz MP3/FLAC ZzZz 76,65 MB 9 2020-04-07
Criostasis_-_Roll_Out-(MCB05)-WEB-2012-ZzZz MP3/FLAC ZzZz 70,27 MB 8 2020-04-07
Tim_Toupet_-_Allee_Allee_(Reloaded)-SINGLE-WEB-DE-2020-ZzZz MP3/FLAC ZzZz 7,18 MB 5 2020-04-07
Impossible_Music_Force_-_House_Of_The_Risin_Force-(4061707326509)-SINGLE-WEB-2020-ZzZz MP3/FLAC ZzZz 12,28 MB 4 2020-04-06
Kaki_-_Judgement-(HD181)-SINGLE-WEB-2020-ZzZz MP3/FLAC ZzZz 15,82 MB 5 2020-04-06
VA_-_DJ_Edition_Vol_11-(PRO19X5DJ)-WEB-2020-ZzZz MP3/FLAC ZzZz 126,58 MB 13 2020-04-06
Pete_Untitled_vs_DJ_Mosquito_-_About_You-(FE282)-SINGLE-WEB-2020-ZzZz MP3/FLAC ZzZz 15,99 MB 5 2020-04-06
Shax_-_Deeper_Love-(HTR010)-WEB-2020-ZzZz MP3/FLAC ZzZz 24,24 MB 6 2020-04-06
Donato_Donnaloia_feat_John_Toso_-_Coronavirus_Everything_Will_Be_Fine_(Raise_Your_Hands_Remix)-(3616404857408)-WEB-2020-ZzZz MP3/FLAC ZzZz 28,84 MB 6 2020-04-06
DJ_Tomsten_-_Blow_Your_Body-(44567)-SINGLE-WEB-2020-ZzZz MP3/FLAC ZzZz 9,07 MB 5 2020-04-06
Obsidian_Project_-_Top_Hard_Trance-(BSR562)-WEB-2020-ZzZz MP3/FLAC ZzZz 99,48 MB 14 2020-04-06
Jyye_-_Look_at_You-(8712944591965)-SINGLE-WEB-2020-ZzZz MP3/FLAC ZzZz 5,37 MB 4 2020-04-06
VA_-_TOP_Selection_V-(3616403490606)-WEB-2020-ZzZz MP3/FLAC ZzZz 264,64 MB 24 2020-04-06
Legion_-_A_Chante-(DT096)-SINGLE-WEB-2020-ZzZz MP3/FLAC ZzZz 17,05 MB 5 2020-04-06
Freaky_DJs_and_Beatmad_-_Everybody-(PHM919)-WEB-2020-ZzZz MP3/FLAC ZzZz 13,43 MB 6 2020-04-06
Beni-B_and_Delighters_and_Inusa_Dawuda_-_Call_Me_Baby_(Remixes)-(KOM077)-WEB-2020-ZzZz MP3/FLAC ZzZz 21,80 MB 6 2020-04-06
Diego_Miranda_-_Better-(LIM085)-SINGLE-WEB-2020-ZzZz MP3/FLAC ZzZz 7,30 MB 4 2020-04-06
Ineffable_-_Alive-(CAT373464)-SINGLE-WEB-2020-ZzZz MP3/FLAC ZzZz 7,13 MB 5 2020-04-06
Tunesquad_feat_Elle_Mariachi_-_Warrior-(PHM918)-SINGLE-WEB-2020-ZzZz MP3/FLAC ZzZz 9,72 MB 5 2020-04-06
Dawn_Errise_-_Saturn-(FCID3689967)-SINGLE-WEB-2020-ZzZz MP3/FLAC ZzZz 10,12 MB 5 2020-04-06
Ahzee_-_Ridin-SINGLE-WEB-2020-ZzZz MP3/FLAC ZzZz 5,66 MB 4 2020-04-06
DJ_Stilly_-_Count_On_You-(0195163742062)-SINGLE-WEB-2020-ZzZz MP3/FLAC ZzZz 5,98 MB 5 2020-04-06
DJ_Stilly_-_Happy-(0193664011328)-SINGLE-WEB-2020-ZzZz MP3/FLAC ZzZz 9,93 MB 5 2020-04-06
DJ_Stilly_-_Spin_It-(0194937488823)-SINGLE-WEB-2020-ZzZz MP3/FLAC ZzZz 9,95 MB 5 2020-04-06
DJ_Stilly_-_Your_Melody-(0195163738829)-SINGLE-WEB-2020-ZzZz MP3/FLAC ZzZz 7,39 MB 5 2020-04-06
Anevo_-_No_Limits-(RLS00092098)-WEB-2020-ZzZz MP3/FLAC ZzZz 125,01 MB 18 2020-04-06
Wired_Fam_-_Wired_Fam_Vol_1-(AFLPRO2020A)-WEB-2020-ZzZz MP3/FLAC ZzZz 46,04 MB 11 2020-04-06
DjSunnyMega_-_Nobody_Care-(3616404858535)-SINGLE-WEB-2020-ZzZz MP3/FLAC ZzZz 5,69 MB 4 2020-04-06
Richard_P_-_My_Alien_Lover-(SE1170)-WEB-2020-ZzZz MP3/FLAC ZzZz 23,25 MB 5 2020-04-06
Max_V_-_Refreshed_with_Love-(4061707332906)-WEB-2020-ZzZz MP3/FLAC ZzZz 46,12 MB 7 2020-04-06
Homo_Novo_-_Never_For_You-(3616403829529)-SINGLE-WEB-2020-ZzZz MP3/FLAC ZzZz 5,02 MB 5 2020-04-06
Tones_and_I_and_K_Noise_and_Guaracha_-_Dance_Monkey_Bongo-(3616404640253)-SINGLE-WEB-2020-ZzZz MP3/FLAC ZzZz 4,55 MB 4 2020-04-06
Sak_Chaime_-_Dude_Of_The_World-(3616403830228)-SINGLE-WEB-2020-ZzZz MP3/FLAC ZzZz 13,05 MB 5 2020-04-06
Aspettativa_-_Tempesta-(DVSRAYEAH007)-SINGLE-WEB-2020-ZzZz MP3/FLAC ZzZz 6,71 MB 4 2020-04-06